createdAt,value
2022-07-30T00:03:35.389Z,99.90
2022-07-30T00:08:20.561Z,99.90
2022-07-30T00:13:04.283Z,99.90
2022-07-30T00:17:49.113Z,99.90
2022-07-30T00:22:33.245Z,99.90
2022-07-30T00:27:18.266Z,99.90
2022-07-30T00:32:01.819Z,99.90
2022-07-30T00:36:45.528Z,99.90
2022-07-30T00:41:29.178Z,99.90
2022-07-30T00:46:15.054Z,99.90
2022-07-30T00:50:58.869Z,99.90
2022-07-30T00:55:42.666Z,99.90
2022-07-30T01:00:26.589Z,99.90
2022-07-30T01:05:12.033Z,99.90
2022-07-30T01:09:55.614Z,99.90
2022-07-30T01:14:39.931Z,99.90
2022-07-30T01:19:45.686Z,99.90
2022-07-30T01:24:36.606Z,99.90
2022-07-30T01:29:23.152Z,99.90
2022-07-30T01:34:07.595Z,99.90
2022-07-30T01:38:52.823Z,99.90
2022-07-30T01:43:37.227Z,99.90
2022-07-30T01:48:26.004Z,99.90
2022-07-30T01:53:10.081Z,99.90
2022-07-30T01:57:55.396Z,99.90
2022-07-30T02:02:41.011Z,99.90
2022-07-30T02:07:33.614Z,99.90
2022-07-30T02:12:32.407Z,99.90
2022-07-30T02:17:30.423Z,99.90
2022-07-30T02:22:20.764Z,99.90
2022-07-30T02:27:13.954Z,99.90
2022-07-30T02:31:59.203Z,99.90
2022-07-30T02:36:44.563Z,99.90
2022-07-30T02:41:31.238Z,99.90
2022-07-30T02:46:18.339Z,99.90
2022-07-30T02:51:04.295Z,99.90
2022-07-30T02:55:49.489Z,99.90
2022-07-30T03:00:35.089Z,99.90
2022-07-30T03:05:20.454Z,99.90
2022-07-30T03:10:04.623Z,99.90
2022-07-30T03:14:48.210Z,99.90
2022-07-30T03:19:34.426Z,99.90
2022-07-30T03:24:20.628Z,99.90
2022-07-30T03:29:04.325Z,99.90
2022-07-30T03:33:49.346Z,99.90
2022-07-30T03:38:33.687Z,99.90
2022-07-30T03:43:33.037Z,99.90
2022-07-30T03:48:17.589Z,99.90
2022-07-30T03:53:01.634Z,99.90
2022-07-30T03:57:45.205Z,99.90
2022-07-30T04:02:30.035Z,99.90
2022-07-30T04:07:13.738Z,99.90
2022-07-30T04:11:57.220Z,99.90
2022-07-30T04:16:48.132Z,99.90
2022-07-30T04:21:34.825Z,99.90
2022-07-30T04:26:19.292Z,99.90
2022-07-30T04:31:03.257Z,99.90
2022-07-30T04:35:51.888Z,99.90
2022-07-30T04:40:37.504Z,99.90
2022-07-30T04:45:21.643Z,99.90
2022-07-30T04:50:07.679Z,99.90
2022-07-30T04:54:55.832Z,99.90
2022-07-30T04:59:40.954Z,99.90
2022-07-30T05:04:26.382Z,99.90
2022-07-30T05:09:10.311Z,99.90
2022-07-30T05:13:54.619Z,99.90
2022-07-30T05:18:40.250Z,99.90
2022-07-30T05:23:23.987Z,99.90
2022-07-30T05:28:07.482Z,99.90
2022-07-30T05:32:51.028Z,99.90
2022-07-30T05:37:35.954Z,99.90
2022-07-30T05:42:19.467Z,99.90
2022-07-30T05:47:03.256Z,99.90
2022-07-30T05:51:47.188Z,99.90
2022-07-30T05:56:32.256Z,99.90
2022-07-30T06:01:15.818Z,99.90
2022-07-30T06:05:59.480Z,99.90
2022-07-30T06:10:42.993Z,99.90
2022-07-30T06:15:28.207Z,99.90
2022-07-30T06:20:13.152Z,99.90
2022-07-30T06:24:56.765Z,99.90
2022-07-30T06:29:40.442Z,99.90
2022-07-30T06:34:25.416Z,99.90
2022-07-30T06:39:08.865Z,99.90
2022-07-30T06:43:52.428Z,99.90
2022-07-30T06:48:37.611Z,99.90
2022-07-30T06:53:22.602Z,99.90
2022-07-30T06:58:08.950Z,99.90
2022-07-30T07:02:52.901Z,99.90
2022-07-30T07:07:42.317Z,99.90
2022-07-30T07:12:29.233Z,99.90
2022-07-30T07:17:13.307Z,99.90
2022-07-30T07:21:56.900Z,99.90
2022-07-30T07:26:40.528Z,99.90
2022-07-30T07:32:02.574Z,99.90
2022-07-30T07:36:29.939Z,99.90
2022-07-30T07:41:13.557Z,99.90
2022-07-30T07:45:57.095Z,99.90
2022-07-30T07:50:42.233Z,99.90
2022-07-30T07:55:25.860Z,99.90
2022-07-30T08:00:12.071Z,99.90
2022-07-30T08:04:55.594Z,99.90
2022-07-30T08:09:44.728Z,99.90
2022-07-30T08:14:31.813Z,99.90
2022-07-30T08:19:15.488Z,99.90
2022-07-30T08:23:59.312Z,99.90
2022-07-30T08:28:45.915Z,99.90
2022-07-30T08:33:29.551Z,99.90
2022-07-30T08:38:14.558Z,99.90
2022-07-30T08:42:58.192Z,99.90
2022-07-30T08:47:46.083Z,99.90
2022-07-30T08:52:29.807Z,99.90
2022-07-30T08:57:15.292Z,99.90
2022-07-30T09:02:00.100Z,99.90
2022-07-30T09:06:45.810Z,99.90
2022-07-30T09:11:31.001Z,99.90
2022-07-30T09:16:23.645Z,99.90
2022-07-30T09:21:17.255Z,99.90
2022-07-30T09:26:02.134Z,99.90
2022-07-30T09:30:49.039Z,99.90
2022-07-30T09:35:32.691Z,99.90
2022-07-30T09:40:18.322Z,99.90
2022-07-30T09:45:09.856Z,99.90
2022-07-30T09:50:07.412Z,99.90
2022-07-30T09:54:53.183Z,99.90
2022-07-30T09:59:37.014Z,99.90
2022-07-30T10:04:27.626Z,99.90
2022-07-30T10:09:25.547Z,99.90
2022-07-30T10:14:11.143Z,99.90
2022-07-30T10:18:56.716Z,99.90
2022-07-30T10:23:44.159Z,99.90
2022-07-30T10:28:30.127Z,99.90
2022-07-30T10:33:35.248Z,99.90
2022-07-30T10:38:22.248Z,99.90
2022-07-30T10:43:44.597Z,99.90
2022-07-30T10:48:29.784Z,99.90
2022-07-30T10:53:34.319Z,99.90
2022-07-30T10:58:23.007Z,99.90
2022-07-30T11:03:40.538Z,99.90
2022-07-30T11:08:42.651Z,99.90
2022-07-30T11:13:54.076Z,99.90
2022-07-30T11:19:53.391Z,99.90
2022-07-30T11:24:43.699Z,99.90
2022-07-30T11:29:51.384Z,99.90
2022-07-30T11:34:35.100Z,99.70
2022-07-30T11:39:20.059Z,98.60
2022-07-30T11:44:30.198Z,95.10
2022-07-30T11:49:15.886Z,92.20
2022-07-30T11:54:04.464Z,93.60
2022-07-30T11:58:49.403Z,94.30
2022-07-30T12:03:33.930Z,99.90
2022-07-30T12:08:33.283Z,99.90
2022-07-30T12:13:20.041Z,99.90
2022-07-30T12:18:29.513Z,99.90
2022-07-30T12:23:13.737Z,99.90
2022-07-30T12:27:57.317Z,99.90
2022-07-30T12:32:41.041Z,99.90
2022-07-30T12:37:26.333Z,99.90
2022-07-30T12:42:20.099Z,99.90
2022-07-30T12:47:04.646Z,99.90
2022-07-30T12:51:59.850Z,99.90
2022-07-30T12:56:57.923Z,99.90
2022-07-30T13:01:42.395Z,99.90
2022-07-30T13:06:26.213Z,99.90
2022-07-30T13:11:09.763Z,99.90
2022-07-30T13:16:02.829Z,99.90
2022-07-30T13:20:47.378Z,99.90
2022-07-30T13:25:38.667Z,99.90
2022-07-30T13:30:22.788Z,99.90
2022-07-30T13:35:09.478Z,99.90
2022-07-30T13:39:53.029Z,99.90
2022-07-30T13:44:36.509Z,99.90
2022-07-30T13:49:20.136Z,99.90
2022-07-30T13:54:05.862Z,99.90
2022-07-30T13:58:49.655Z,99.90
2022-07-30T14:03:33.203Z,99.90
2022-07-30T14:08:17.512Z,99.60
2022-07-30T14:13:02.773Z,99.90
2022-07-30T14:17:56.456Z,99.40
2022-07-30T14:22:40.405Z,96.40
2022-07-30T14:27:24.021Z,93.70
2022-07-30T14:32:09.024Z,91.20
2022-07-30T14:36:53.015Z,90.50
2022-07-30T14:41:37.954Z,89.80
2022-07-30T14:46:21.637Z,90.90
2022-07-30T14:51:17.663Z,88.30
2022-07-30T14:56:04.299Z,85.90
2022-07-30T15:00:48.613Z,86.60
2022-07-30T15:05:32.701Z,88.10
2022-07-30T15:10:17.722Z,87.40
2022-07-30T15:15:01.295Z,83.90
2022-07-30T15:19:50.019Z,88.60
2022-07-30T15:24:34.720Z,90.80
2022-07-30T15:29:19.700Z,91.20
2022-07-30T15:34:03.393Z,86.70
2022-07-30T15:38:46.919Z,87.70
2022-07-30T15:43:30.488Z,88.00
2022-07-30T15:48:15.563Z,89.30
2022-07-30T15:53:14.670Z,87.80
2022-07-30T15:58:01.349Z,89.10
2022-07-30T16:02:45.292Z,90.10
2022-07-30T16:07:30.434Z,90.70
2022-07-30T16:12:13.926Z,92.40
2022-07-30T16:16:57.533Z,92.30
2022-07-30T16:21:41.285Z,92.20
2022-07-30T16:26:26.256Z,91.10
2022-07-30T16:31:09.975Z,93.40
2022-07-30T16:35:53.585Z,94.30
2022-07-30T16:40:37.062Z,94.70
2022-07-30T16:45:22.042Z,95.60
2022-07-30T16:50:06.075Z,95.60
2022-07-30T16:54:49.668Z,95.90
2022-07-30T16:59:33.136Z,96.60
2022-07-30T17:04:18.244Z,96.30
2022-07-30T17:09:01.846Z,97.00
2022-07-30T17:13:45.859Z,97.80
2022-07-30T17:18:29.309Z,98.30
2022-07-30T17:23:14.355Z,99.20
2022-07-30T17:27:58.580Z,99.80
2022-07-30T17:32:42.237Z,99.90
2022-07-30T17:37:25.669Z,99.90
2022-07-30T17:42:11.086Z,99.90
2022-07-30T17:46:54.884Z,99.90
2022-07-30T17:51:39.794Z,99.90
2022-07-30T17:56:27.071Z,99.90
2022-07-30T18:01:12.437Z,99.90
2022-07-30T18:05:56.403Z,99.90
2022-07-30T18:10:40.778Z,99.90
2022-07-30T18:15:27.091Z,99.90
2022-07-30T18:20:13.211Z,99.90
2022-07-30T18:24:56.758Z,99.90
2022-07-30T18:29:40.758Z,99.90
2022-07-30T18:34:24.382Z,99.90
2022-07-30T18:39:09.440Z,99.90
2022-07-30T18:43:53.106Z,99.90
2022-07-30T18:48:37.127Z,99.90
2022-07-30T18:53:21.161Z,99.90
2022-07-30T18:58:06.066Z,99.90
2022-07-30T19:02:49.711Z,99.90
2022-07-30T19:07:56.899Z,99.90
2022-07-30T19:12:37.015Z,99.90
2022-07-30T19:17:22.279Z,99.90
2022-07-30T19:22:29.880Z,99.90
2022-07-30T19:27:14.401Z,99.90
2022-07-30T19:31:58.170Z,99.90
2022-07-30T19:36:43.145Z,99.90
2022-07-30T19:41:26.679Z,99.90
2022-07-30T19:46:12.117Z,99.90
2022-07-30T19:50:56.115Z,99.90
2022-07-30T19:55:41.308Z,99.90
2022-07-30T20:00:27.819Z,99.90
2022-07-30T20:05:12.434Z,99.90
2022-07-30T20:09:57.604Z,99.90
2022-07-30T20:14:43.439Z,99.90
2022-07-30T20:19:28.105Z,99.90
2022-07-30T20:24:19.743Z,99.90
2022-07-30T20:29:09.177Z,99.90
2022-07-30T20:34:04.121Z,99.90
2022-07-30T20:38:49.435Z,99.90
2022-07-30T20:43:33.501Z,99.90
2022-07-30T20:48:35.636Z,99.90
2022-07-30T20:53:23.355Z,99.90
2022-07-30T20:58:16.636Z,99.90
2022-07-30T21:03:04.510Z,99.90
2022-07-30T21:07:48.292Z,99.90
2022-07-30T21:12:38.906Z,99.90
2022-07-30T21:17:25.365Z,99.90
2022-07-30T21:22:11.266Z,99.90
2022-07-30T21:26:55.715Z,99.90
2022-07-30T21:32:01.179Z,99.90
2022-07-30T21:36:45.584Z,99.90
2022-07-30T21:41:40.497Z,99.90
2022-07-30T21:46:26.775Z,99.90
2022-07-30T21:51:12.257Z,99.90
2022-07-30T21:55:56.531Z,99.90
2022-07-30T22:23:40.570Z,99.90
2022-07-30T22:28:38.706Z,99.90
2022-07-30T22:33:22.853Z,99.90
2022-07-30T22:38:12.066Z,99.90
2022-07-30T22:42:57.142Z,99.90
2022-07-30T22:47:54.127Z,99.90
2022-07-30T22:52:39.070Z,99.90
2022-07-30T22:57:23.449Z,99.90
2022-07-30T23:02:12.369Z,99.90
2022-07-30T23:06:56.372Z,99.90
2022-07-30T23:11:40.259Z,99.90
2022-07-30T23:16:24.039Z,99.90
2022-07-30T23:21:10.157Z,99.90
2022-07-30T23:25:53.781Z,99.90
2022-07-30T23:30:37.582Z,99.90
2022-07-30T23:35:21.304Z,99.90
2022-07-30T23:40:07.742Z,99.90
2022-07-30T23:44:51.347Z,99.90
2022-07-30T23:49:35.325Z,99.90
2022-07-30T23:54:18.999Z,99.90
2022-07-30T23:59:03.964Z,99.90
